createdAt,value
2018-06-08T00:01:21.369Z,81.10
2018-06-08T00:03:49.675Z,80.50
2018-06-08T00:06:17.385Z,80.50
2018-06-08T00:08:45.309Z,80.70
2018-06-08T00:11:13.071Z,81.30
2018-06-08T00:13:40.802Z,80.70
2018-06-08T00:16:10.100Z,80.30
2018-06-08T00:18:45.744Z,80.60
2018-06-08T00:21:13.519Z,80.70
2018-06-08T00:23:41.388Z,81.20
2018-06-08T00:26:09.128Z,81.90
2018-06-08T00:28:37.090Z,82.00
2018-06-08T00:31:04.781Z,81.30
2018-06-08T00:33:32.757Z,81.10
2018-06-08T00:36:01.237Z,80.60
2018-06-08T00:38:29.627Z,80.50
2018-06-08T00:40:59.468Z,81.60
2018-06-08T00:43:30.170Z,81.10
2018-06-08T00:46:02.235Z,81.00
2018-06-08T00:48:31.034Z,81.30
2018-06-08T00:51:00.652Z,81.90
2018-06-08T00:53:28.988Z,81.90
2018-06-08T00:55:58.342Z,81.00
2018-06-08T00:58:26.976Z,81.20
2018-06-08T01:00:55.952Z,81.30
2018-06-08T01:03:24.581Z,81.40
2018-06-08T01:05:52.927Z,81.40
2018-06-08T01:08:21.603Z,81.70
2018-06-08T01:10:51.964Z,81.90
2018-06-08T01:13:20.526Z,82.70
2018-06-08T01:15:49.338Z,82.00
2018-06-08T01:18:18.883Z,81.40
2018-06-08T01:20:47.006Z,81.90
2018-06-08T01:23:15.255Z,81.90
2018-06-08T01:25:47.507Z,81.90
2018-06-08T01:28:16.256Z,81.90
2018-06-08T01:30:49.750Z,81.90
2018-06-08T01:33:19.664Z,81.90
2018-06-08T01:35:47.669Z,81.90
2018-06-08T01:38:17.641Z,81.70
2018-06-08T01:40:44.816Z,81.70
2018-06-08T01:43:14.044Z,81.70
2018-06-08T01:45:49.199Z,81.70
2018-06-08T01:48:17.665Z,81.80
2018-06-08T01:50:45.876Z,81.80
2018-06-08T01:53:18.276Z,81.90
2018-06-08T01:55:46.856Z,81.80
2018-06-08T01:58:17.456Z,81.70
2018-06-08T02:00:45.418Z,81.90
2018-06-08T02:03:13.426Z,81.90
2018-06-08T02:05:43.763Z,81.70
2018-06-08T02:08:12.300Z,81.70
2018-06-08T02:10:45.433Z,82.30
2018-06-08T02:13:15.055Z,82.40
2018-06-08T02:15:49.290Z,82.30
2018-06-08T02:18:18.039Z,82.70
2018-06-08T02:20:50.276Z,82.20
2018-06-08T02:23:18.672Z,82.10
2018-06-08T02:25:51.976Z,82.40
2018-06-08T02:28:29.473Z,82.20
2018-06-08T02:30:59.321Z,81.60
2018-06-08T02:33:27.760Z,81.70
2018-06-08T02:35:59.270Z,81.70
2018-06-08T02:38:27.719Z,81.60
2018-06-08T02:40:55.363Z,82.60
2018-06-08T02:43:23.163Z,83.20
2018-06-08T02:45:51.080Z,82.70
2018-06-08T02:48:19.407Z,82.80
2018-06-08T02:50:51.738Z,82.40
2018-06-08T02:53:24.950Z,81.90
2018-06-08T02:55:54.891Z,82.40
2018-06-08T02:58:23.390Z,82.60
2018-06-08T03:00:57.236Z,83.00
2018-06-08T03:03:27.248Z,83.20
2018-06-08T03:05:55.207Z,82.90
2018-06-08T03:08:26.847Z,83.10
2018-06-08T03:10:58.738Z,83.70
2018-06-08T03:13:27.239Z,83.30
2018-06-08T03:15:56.534Z,83.30
2018-06-08T03:18:26.874Z,83.50
2018-06-08T03:20:57.662Z,83.30
2018-06-08T03:23:28.015Z,83.50
2018-06-08T03:25:57.229Z,83.60
2018-06-08T03:28:29.825Z,83.60
2018-06-08T03:33:59.351Z,83.20
2018-06-08T03:36:27.465Z,82.90
2018-06-08T03:38:56.684Z,83.10
2018-06-08T03:41:28.305Z,83.30
2018-06-08T03:43:57.942Z,83.70
2018-06-08T03:46:27.487Z,83.70
2018-06-08T03:48:59.096Z,83.70
2018-06-08T03:54:30.003Z,83.20
2018-06-08T03:56:57.659Z,83.00
2018-06-08T03:59:25.461Z,83.00
2018-06-08T04:01:53.178Z,83.00
2018-06-08T04:04:21.922Z,83.10
2018-06-08T04:06:49.886Z,83.40
2018-06-08T04:09:17.838Z,82.70
2018-06-08T04:11:45.675Z,83.10
2018-06-08T04:14:14.290Z,83.00
2018-06-08T04:16:42.301Z,83.10
2018-06-08T04:19:10.331Z,83.30
2018-06-08T04:21:38.530Z,83.40
2018-06-08T04:24:06.171Z,84.10
2018-06-08T04:26:35.417Z,83.00
2018-06-08T04:29:03.486Z,82.90
2018-06-08T04:31:43.880Z,82.80
2018-06-08T04:36:59.336Z,81.90
2018-06-08T04:39:27.917Z,82.50
2018-06-08T04:41:57.450Z,82.30
2018-06-08T04:44:25.477Z,81.90
2018-06-08T04:46:57.306Z,82.00
2018-06-08T04:49:27.642Z,82.50
2018-06-08T04:51:55.903Z,82.00
2018-06-08T04:54:24.299Z,82.00
2018-06-08T04:56:53.445Z,82.20
2018-06-08T04:59:26.434Z,82.30
2018-06-08T05:01:54.762Z,82.30
2018-06-08T05:04:22.499Z,82.40
2018-06-08T05:06:55.186Z,82.50
2018-06-08T05:09:24.449Z,82.00
2018-06-08T05:11:53.087Z,82.20
2018-06-08T05:14:21.043Z,82.20
2018-06-08T05:16:48.643Z,82.60
2018-06-08T05:19:16.667Z,82.20
2018-06-08T05:21:44.345Z,82.30
2018-06-08T05:24:11.958Z,82.60
2018-06-08T05:26:40.561Z,82.40
2018-06-08T05:29:08.314Z,82.40
2018-06-08T05:31:37.022Z,82.40
2018-06-08T05:34:07.821Z,82.50
2018-06-08T05:36:34.926Z,82.50
2018-06-08T05:39:02.190Z,81.80
2018-06-08T05:41:30.166Z,81.70
2018-06-08T05:43:58.054Z,81.60
2018-06-08T05:46:25.818Z,80.70
2018-06-08T05:48:54.027Z,80.60
2018-06-08T05:51:21.630Z,79.80
2018-06-08T05:53:52.843Z,79.70
2018-06-08T05:56:21.011Z,80.50
2018-06-08T05:58:49.151Z,80.00
2018-06-08T06:01:17.614Z,78.90
2018-06-08T06:03:45.223Z,79.20
2018-06-08T06:06:12.991Z,79.20
2018-06-08T06:08:40.885Z,78.70
2018-06-08T06:11:09.375Z,78.60
2018-06-08T06:13:36.946Z,78.20
2018-06-08T06:16:04.867Z,78.60
2018-06-08T06:18:33.269Z,77.90
2018-06-08T06:21:01.286Z,78.70
2018-06-08T06:23:28.950Z,78.40
2018-06-08T06:25:56.794Z,78.50
2018-06-08T06:28:24.404Z,79.40
2018-06-08T06:30:52.102Z,77.50
2018-06-08T06:33:20.316Z,77.30
2018-06-08T06:35:48.124Z,77.50
2018-06-08T06:38:15.702Z,77.30
2018-06-08T06:40:43.377Z,77.40
2018-06-08T06:43:11.354Z,77.10
2018-06-08T06:45:39.121Z,76.70
2018-06-08T06:48:07.028Z,75.40
2018-06-08T06:50:34.546Z,74.80
2018-06-08T06:53:02.638Z,72.70
2018-06-08T06:55:30.519Z,73.50
2018-06-08T06:57:58.393Z,73.00
2018-06-08T07:00:26.039Z,72.50
2018-06-08T07:02:53.755Z,72.00
2018-06-08T07:05:23.432Z,71.40
2018-06-08T07:07:51.140Z,70.40
2018-06-08T07:10:19.012Z,72.50
2018-06-08T07:12:46.809Z,70.00
2018-06-08T07:15:14.515Z,68.60
2018-06-08T07:17:42.204Z,68.20
2018-06-08T07:20:09.732Z,67.10
2018-06-08T07:22:38.299Z,66.60
2018-06-08T07:25:05.999Z,66.60
2018-06-08T07:27:34.156Z,68.10
2018-06-08T07:30:01.850Z,66.60
2018-06-08T07:32:29.533Z,64.70
2018-06-08T07:34:57.331Z,66.70
2018-06-08T07:37:25.075Z,64.80
2018-06-08T07:39:53.134Z,64.80
2018-06-08T07:42:21.138Z,65.70
2018-06-08T07:44:48.823Z,65.60
2018-06-08T07:47:16.504Z,65.70
2018-06-08T07:49:44.252Z,64.50
2018-06-08T07:52:11.804Z,64.50
2018-06-08T07:54:39.824Z,63.80
2018-06-08T07:57:07.523Z,63.20
2018-06-08T07:59:35.140Z,63.30
2018-06-08T08:02:02.822Z,63.70
2018-06-08T08:04:30.581Z,64.00
2018-06-08T08:06:58.217Z,62.30
2018-06-08T08:09:26.465Z,62.70
2018-06-08T08:11:54.045Z,61.40
2018-06-08T08:14:21.696Z,61.60
2018-06-08T08:16:49.453Z,61.60
2018-06-08T08:19:17.130Z,60.70
2018-06-08T08:21:44.758Z,61.00
2018-06-08T08:24:12.447Z,60.80
2018-06-08T08:26:40.033Z,60.30
2018-06-08T08:29:07.770Z,59.90
2018-06-08T08:31:35.401Z,59.70
2018-06-08T08:34:03.096Z,59.10
2018-06-08T08:36:30.865Z,58.70
2018-06-08T08:38:58.544Z,59.50
2018-06-08T08:41:26.364Z,57.90
2018-06-08T08:43:54.462Z,56.40
2018-06-08T08:46:22.125Z,57.60
2018-06-08T08:48:49.888Z,56.20
2018-06-08T08:51:17.749Z,57.40
2018-06-08T08:53:45.590Z,55.30
2018-06-08T08:56:13.259Z,55.40
2018-06-08T08:58:41.517Z,56.50
2018-06-08T09:01:09.212Z,54.60
2018-06-08T09:03:36.866Z,54.40
2018-06-08T09:06:04.659Z,54.60
2018-06-08T09:08:32.577Z,54.70
2018-06-08T09:11:00.287Z,53.10
2018-06-08T09:13:27.930Z,53.60
2018-06-08T09:15:55.609Z,51.80
2018-06-08T09:18:23.239Z,51.60
2018-06-08T09:20:50.818Z,53.70
2018-06-08T09:23:18.395Z,52.10
2018-06-08T09:25:46.123Z,52.40
2018-06-08T09:28:13.713Z,54.80
2018-06-08T09:30:42.408Z,53.60
2018-06-08T09:33:10.121Z,55.70
2018-06-08T09:35:37.690Z,52.80
2018-06-08T09:38:05.360Z,51.60
2018-06-08T09:40:35.227Z,52.00
2018-06-08T09:43:03.731Z,52.10
2018-06-08T09:45:31.372Z,51.40
2018-06-08T09:47:59.136Z,52.20
2018-06-08T09:50:26.955Z,51.00
2018-06-08T09:52:54.713Z,49.70
2018-06-08T09:55:22.773Z,50.50
2018-06-08T09:57:50.439Z,50.40
2018-06-08T10:00:23.659Z,49.50
2018-06-08T10:02:51.276Z,50.80
2018-06-08T10:05:18.926Z,49.40
2018-06-08T10:07:46.457Z,49.10
2018-06-08T10:10:14.179Z,48.00
2018-06-08T10:12:42.553Z,46.70
2018-06-08T10:15:10.493Z,46.70
2018-06-08T10:17:38.328Z,47.40
2018-06-08T10:20:06.272Z,46.50
2018-06-08T10:22:33.875Z,46.50
2018-06-08T10:25:01.460Z,47.90
2018-06-08T10:27:29.111Z,46.40
2018-06-08T10:29:56.710Z,46.40
2018-06-08T10:32:23.994Z,47.90
2018-06-08T10:34:51.067Z,46.70
2018-06-08T10:37:18.140Z,46.80
2018-06-08T10:39:45.174Z,47.00
2018-06-08T10:42:12.159Z,44.20
2018-06-08T10:44:39.257Z,45.10
2018-06-08T10:47:06.263Z,45.10
2018-06-08T10:49:33.385Z,43.20
2018-06-08T10:52:00.357Z,44.60
2018-06-08T10:54:27.370Z,42.10
2018-06-08T10:56:54.400Z,43.10
2018-06-08T10:59:21.393Z,40.30
2018-06-08T11:01:48.387Z,40.50
2018-06-08T11:04:16.659Z,39.90
2018-06-08T11:06:43.724Z,40.10
2018-06-08T11:09:10.698Z,39.90
2018-06-08T11:11:38.398Z,40.70
2018-06-08T11:14:06.145Z,42.20
2018-06-08T11:16:33.967Z,40.70
2018-06-08T11:19:01.037Z,40.70
2018-06-08T11:21:28.322Z,39.70
2018-06-08T11:23:55.324Z,38.70
2018-06-08T11:26:22.554Z,38.00
2018-06-08T11:28:49.789Z,37.50
2018-06-08T11:31:17.911Z,36.20
2018-06-08T11:33:44.990Z,34.60
2018-06-08T11:36:11.986Z,36.00
2018-06-08T11:38:39.098Z,36.00
2018-06-08T11:41:06.058Z,35.10
2018-06-08T11:43:33.838Z,35.40
2018-06-08T11:46:00.811Z,35.50
2018-06-08T11:48:27.877Z,33.70
2018-06-08T11:50:54.899Z,33.30
2018-06-08T11:53:21.962Z,34.30
2018-06-08T11:55:48.979Z,34.40
2018-06-08T11:58:16.069Z,35.00
2018-06-08T12:00:43.116Z,34.10
2018-06-08T12:03:10.137Z,34.40
2018-06-08T12:05:37.243Z,33.80
2018-06-08T12:08:04.670Z,31.30
2018-06-08T12:10:31.740Z,32.60
2018-06-08T12:12:58.805Z,34.00
2018-06-08T12:15:25.779Z,33.80
2018-06-08T12:17:52.741Z,30.70
2018-06-08T12:20:19.860Z,31.30
2018-06-08T12:22:46.815Z,32.40
2018-06-08T12:25:14.243Z,33.50
2018-06-08T12:27:41.330Z,31.90
2018-06-08T12:30:08.319Z,32.50
2018-06-08T12:32:35.303Z,31.00
2018-06-08T12:35:03.308Z,31.70
2018-06-08T12:37:30.330Z,31.80
2018-06-08T12:39:57.520Z,31.20
2018-06-08T12:42:24.574Z,32.70
2018-06-08T12:44:51.584Z,32.70
2018-06-08T12:47:18.662Z,33.60
2018-06-08T12:49:45.630Z,36.10
2018-06-08T12:52:12.852Z,38.20
2018-06-08T12:54:39.815Z,36.20
2018-06-08T12:57:07.042Z,36.90
2018-06-08T12:59:34.093Z,37.50
2018-06-08T13:02:01.058Z,37.10
2018-06-08T13:04:28.172Z,37.50
2018-06-08T13:06:55.158Z,36.20
2018-06-08T13:09:22.189Z,33.70
2018-06-08T13:11:49.317Z,32.50
2018-06-08T13:14:16.482Z,30.90
2018-06-08T13:16:43.756Z,29.30
2018-06-08T13:19:10.858Z,29.20
2018-06-08T13:21:37.882Z,30.30
2018-06-08T13:24:05.173Z,29.40
2018-06-08T13:26:33.053Z,29.10
2018-06-08T13:29:01.271Z,29.20
2018-06-08T13:31:28.433Z,29.10
2018-06-08T13:33:55.849Z,31.30
2018-06-08T13:36:23.198Z,30.40
2018-06-08T13:38:50.358Z,33.40
2018-06-08T13:41:17.369Z,29.10
2018-06-08T13:43:44.481Z,30.40
2018-06-08T13:46:17.058Z,31.60
2018-06-08T13:48:44.287Z,31.50
2018-06-08T13:51:11.424Z,30.40
2018-06-08T13:53:39.226Z,29.90
2018-06-08T13:56:06.346Z,31.60
2018-06-08T13:58:33.848Z,31.00
2018-06-08T14:01:00.853Z,30.90
2018-06-08T14:03:28.059Z,30.80
2018-06-08T14:05:55.172Z,29.90
2018-06-08T14:08:22.277Z,30.40
2018-06-08T14:10:49.354Z,29.40
2018-06-08T14:13:16.384Z,30.00
2018-06-08T14:15:43.441Z,29.70
2018-06-08T14:18:10.498Z,31.00
2018-06-08T14:20:37.500Z,32.20
2018-06-08T14:23:05.015Z,32.10
2018-06-08T14:25:32.641Z,32.30
2018-06-08T14:28:00.274Z,30.80
2018-06-08T14:30:27.361Z,32.00
2018-06-08T14:32:54.513Z,32.20
2018-06-08T14:35:21.632Z,31.20
2018-06-08T14:37:48.868Z,30.00
2018-06-08T14:40:15.927Z,30.30
2018-06-08T14:42:45.015Z,30.10
2018-06-08T14:45:12.809Z,30.70
2018-06-08T14:47:39.904Z,31.20
2018-06-08T14:50:07.071Z,31.90
2018-06-08T14:52:34.151Z,32.00
2018-06-08T14:55:01.608Z,30.80
2018-06-08T14:57:28.817Z,29.00
2018-06-08T14:59:55.963Z,29.60
2018-06-08T15:02:22.973Z,28.70
2018-06-08T15:04:49.992Z,29.20
2018-06-08T15:07:17.027Z,28.60
2018-06-08T15:09:44.088Z,28.00
2018-06-08T15:12:11.883Z,28.70
2018-06-08T15:14:39.693Z,28.00
2018-06-08T15:17:08.315Z,28.60
2018-06-08T15:19:38.276Z,28.90
2018-06-08T15:22:06.015Z,28.50
2018-06-08T15:24:33.636Z,28.80
2018-06-08T15:27:01.361Z,27.90
2018-06-08T15:29:29.208Z,27.90
2018-06-08T15:31:56.936Z,28.70
2018-06-08T15:34:24.654Z,27.90
2018-06-08T15:36:52.614Z,27.90
2018-06-08T15:39:23.824Z,27.90
2018-06-08T15:41:51.547Z,26.90
2018-06-08T15:44:19.406Z,27.70
2018-06-08T15:46:47.004Z,28.00
2018-06-08T15:49:14.711Z,27.70
2018-06-08T15:51:43.256Z,27.90
2018-06-08T15:54:10.969Z,28.70
2018-06-08T15:56:38.529Z,29.10
2018-06-08T15:59:07.188Z,29.40
2018-06-08T16:01:35.016Z,28.90
2018-06-08T16:04:02.702Z,27.70
2018-06-08T16:06:30.919Z,28.50
2018-06-08T16:08:58.654Z,28.70
2018-06-08T16:11:28.448Z,29.40
2018-06-08T16:13:56.290Z,27.70
2018-06-08T16:16:24.000Z,28.70
2018-06-08T16:18:51.759Z,28.70
2018-06-08T16:21:19.420Z,28.60
2018-06-08T16:23:47.114Z,29.30
2018-06-08T16:26:14.842Z,28.40
2018-06-08T16:28:42.495Z,28.00
2018-06-08T16:31:10.175Z,28.40
2018-06-08T16:33:38.843Z,29.00
2018-06-08T16:36:06.652Z,27.80
2018-06-08T16:38:34.323Z,28.60
2018-06-08T16:41:02.329Z,28.10
2018-06-08T16:43:30.016Z,27.80
2018-06-08T16:45:57.916Z,28.50
2018-06-08T16:48:25.843Z,28.20
2018-06-08T16:50:54.155Z,28.10
2018-06-08T16:53:21.854Z,29.00
2018-06-08T16:55:50.727Z,29.30
2018-06-08T16:58:18.645Z,28.70
2018-06-08T17:00:46.878Z,28.90
2018-06-08T17:03:15.981Z,29.00
2018-06-08T17:05:43.781Z,29.20
2018-06-08T17:08:11.874Z,29.70
2018-06-08T17:10:39.722Z,30.10
2018-06-08T17:13:07.551Z,30.20
2018-06-08T17:15:35.291Z,30.90
2018-06-08T17:18:03.044Z,31.10
2018-06-08T17:20:30.805Z,31.40
2018-06-08T17:22:57.854Z,31.10
2018-06-08T17:25:24.885Z,31.70
2018-06-08T17:27:52.027Z,32.00
2018-06-08T17:30:19.881Z,32.10
2018-06-08T17:32:47.185Z,32.10
2018-06-08T17:35:14.244Z,33.10
2018-06-08T17:37:41.312Z,34.10
2018-06-08T17:40:09.484Z,35.10
2018-06-08T17:42:37.228Z,35.50
2018-06-08T17:45:05.046Z,36.20
2018-06-08T17:47:32.105Z,37.10
2018-06-08T17:49:59.486Z,37.10
2018-06-08T17:52:26.534Z,37.00
2018-06-08T17:54:55.282Z,36.90
2018-06-08T17:57:22.547Z,37.50
2018-06-08T17:59:50.486Z,36.90
2018-06-08T18:02:17.661Z,37.30
2018-06-08T18:04:45.064Z,36.80
2018-06-08T18:07:14.237Z,36.80
2018-06-08T18:09:41.537Z,36.80
2018-06-08T18:12:09.259Z,35.80
2018-06-08T18:14:36.964Z,34.80
2018-06-08T18:17:05.304Z,34.60
2018-06-08T18:19:33.544Z,35.50
2018-06-08T18:22:01.276Z,35.20
2018-06-08T18:24:28.958Z,35.50
2018-06-08T18:26:56.707Z,35.70
2018-06-08T18:29:24.674Z,36.60
2018-06-08T18:31:51.962Z,38.70
2018-06-08T18:34:19.074Z,39.60
2018-06-08T18:36:46.426Z,40.70
2018-06-08T18:39:14.005Z,41.00
2018-06-08T18:41:40.979Z,41.60
2018-06-08T18:44:08.203Z,42.00
2018-06-08T18:46:35.354Z,42.30
2018-06-08T18:49:04.439Z,42.90
2018-06-08T18:51:32.477Z,42.90
2018-06-08T18:54:05.845Z,43.80
2018-06-08T18:56:34.413Z,43.90
2018-06-08T18:59:02.195Z,44.30
2018-06-08T19:01:29.283Z,44.80
2018-06-08T19:03:57.805Z,44.30
2018-06-08T19:06:24.838Z,44.10
2018-06-08T19:08:52.511Z,44.90
2018-06-08T19:11:19.504Z,43.90
2018-06-08T19:13:46.495Z,44.50
2018-06-08T19:16:13.806Z,43.90
2018-06-08T19:18:43.067Z,44.30
2018-06-08T19:21:10.292Z,44.00
2018-06-08T19:23:43.804Z,45.10
2018-06-08T19:26:11.590Z,44.40
2018-06-08T19:28:39.620Z,45.00
2018-06-08T19:31:07.650Z,45.10
2018-06-08T19:33:35.837Z,45.10
2018-06-08T19:36:07.069Z,44.40
2018-06-08T19:38:35.042Z,45.10
2018-06-08T19:41:06.369Z,43.50
2018-06-08T19:43:33.365Z,44.90
2018-06-08T19:46:00.511Z,44.80
2018-06-08T19:48:28.579Z,44.70
2018-06-08T19:50:55.655Z,45.50
2018-06-08T19:53:25.060Z,44.80
2018-06-08T19:55:56.833Z,44.70
2018-06-08T19:58:26.921Z,45.60
2018-06-08T20:03:44.014Z,45.60
2018-06-08T20:06:15.504Z,46.50
2018-06-08T20:08:42.598Z,46.00
2018-06-08T20:11:13.400Z,46.20
2018-06-08T20:13:41.666Z,46.20
2018-06-08T20:16:08.815Z,46.80
2018-06-08T20:18:36.949Z,47.50
2018-06-08T20:21:17.765Z,47.00
2018-06-08T20:23:44.978Z,47.40
2018-06-08T20:26:11.975Z,47.60
2018-06-08T20:28:39.067Z,48.20
2018-06-08T20:31:06.154Z,48.30
2018-06-08T20:33:33.198Z,48.30
2018-06-08T20:36:13.752Z,48.40
2018-06-08T20:38:40.689Z,48.40
2018-06-08T20:41:07.654Z,49.00
2018-06-08T20:43:35.156Z,48.50
2018-06-08T20:46:09.943Z,49.20
2018-06-08T20:48:38.053Z,49.50
2018-06-08T20:51:05.942Z,50.10
2018-06-08T20:53:33.035Z,50.60
2018-06-08T20:56:00.298Z,50.90
2018-06-08T20:58:28.306Z,50.70
2018-06-08T21:00:55.974Z,50.80
2018-06-08T21:03:23.056Z,51.40
2018-06-08T21:05:50.101Z,51.50
2018-06-08T21:08:17.085Z,52.10
2018-06-08T21:10:44.218Z,51.90
2018-06-08T21:13:11.218Z,53.20
2018-06-08T21:15:38.402Z,52.80
2018-06-08T21:18:05.396Z,53.50
2018-06-08T21:20:32.509Z,53.50
2018-06-08T21:22:59.543Z,53.40
2018-06-08T21:25:28.722Z,53.40
2018-06-08T21:27:55.945Z,54.30
2018-06-08T21:30:23.356Z,53.40
2018-06-08T21:32:50.630Z,53.90
2018-06-08T21:35:17.729Z,54.30
2018-06-08T21:37:44.854Z,54.40
2018-06-08T21:40:12.264Z,54.30
2018-06-08T21:42:39.389Z,55.20
2018-06-08T21:45:06.693Z,55.20
2018-06-08T21:47:33.737Z,55.20
2018-06-08T21:50:00.918Z,55.40
2018-06-08T21:52:28.069Z,55.00
2018-06-08T21:54:55.235Z,54.50
2018-06-08T21:57:22.232Z,55.00
2018-06-08T21:59:49.261Z,54.90
2018-06-08T22:02:16.299Z,55.20
2018-06-08T22:04:43.401Z,55.10
2018-06-08T22:07:10.462Z,55.20
2018-06-08T22:09:37.435Z,55.70
2018-06-08T22:12:04.840Z,55.80
2018-06-08T22:14:31.842Z,55.40
2018-06-08T22:16:58.892Z,56.80
2018-06-08T22:19:26.152Z,55.70
2018-06-08T22:21:53.782Z,56.30
2018-06-08T22:24:20.781Z,56.80
2018-06-08T22:26:47.800Z,57.40
2018-06-08T22:29:15.042Z,56.20
2018-06-08T22:31:42.110Z,57.00
2018-06-08T22:34:09.191Z,56.70
2018-06-08T22:36:36.390Z,57.10
2018-06-08T22:39:05.176Z,57.00
2018-06-08T22:41:32.235Z,57.70
2018-06-08T22:43:59.700Z,57.80
2018-06-08T22:46:26.987Z,57.00
2018-06-08T22:48:54.073Z,56.60
2018-06-08T22:51:21.078Z,57.20
2018-06-08T22:53:48.130Z,57.50
2018-06-08T22:56:15.187Z,56.80
2018-06-08T22:58:42.551Z,57.70
2018-06-08T23:01:09.523Z,57.50
2018-06-08T23:03:36.764Z,57.80
2018-06-08T23:06:04.707Z,57.90
2018-06-08T23:08:31.724Z,58.00
2018-06-08T23:10:58.870Z,58.10
2018-06-08T23:13:26.078Z,58.90
2018-06-08T23:15:53.108Z,58.40
2018-06-08T23:18:20.699Z,58.90
2018-06-08T23:49:32.977Z,60.30
2018-06-08T23:52:08.377Z,60.10
2018-06-08T23:57:32.777Z,60.60
